createdAt,value
2022-09-25T00:00:13.793Z,16.40
2022-09-25T00:03:19.437Z,16.40
2022-09-25T00:06:25.959Z,16.60
2022-09-25T00:09:29.128Z,16.30
2022-09-25T00:12:33.664Z,16.60
2022-09-25T00:15:37.099Z,16.30
2022-09-25T00:18:58.960Z,17.00
2022-09-25T00:22:02.167Z,16.30
2022-09-25T00:25:06.028Z,16.10
2022-09-25T00:28:13.125Z,16.00
2022-09-25T00:31:24.425Z,16.00
2022-09-25T00:34:27.744Z,15.90
2022-09-25T00:37:31.308Z,15.90
2022-09-25T00:40:34.558Z,15.80
2022-09-25T00:43:44.489Z,15.80
2022-09-25T00:46:47.648Z,15.80
2022-09-25T00:49:56.588Z,15.70
2022-09-25T00:53:08.007Z,15.70
2022-09-25T00:56:15.190Z,15.70
2022-09-25T00:59:25.983Z,15.90
2022-09-25T01:02:34.387Z,15.80
2022-09-25T01:05:42.786Z,15.80
2022-09-25T01:08:47.617Z,16.10
2022-09-25T01:11:51.212Z,15.90
2022-09-25T01:14:57.185Z,15.90
2022-09-25T01:18:17.606Z,16.00
2022-09-25T01:21:37.647Z,16.00
2022-09-25T01:24:57.425Z,15.80
2022-09-25T01:28:29.940Z,16.20
2022-09-25T01:31:42.711Z,16.10
2022-09-25T01:34:57.505Z,16.00
2022-09-25T01:38:15.302Z,16.10
2022-09-25T01:41:26.098Z,16.10
2022-09-25T01:44:33.533Z,16.10
2022-09-25T01:47:40.424Z,16.60
2022-09-25T01:50:49.713Z,16.00
2022-09-25T01:53:58.561Z,16.00
2022-09-25T01:57:10.325Z,16.00
2022-09-25T02:00:19.281Z,16.00
2022-09-25T02:03:30.878Z,15.40
2022-09-25T02:06:39.193Z,16.00
2022-09-25T02:09:46.826Z,16.00
2022-09-25T02:12:56.919Z,16.00
2022-09-25T02:16:06.998Z,16.00
2022-09-25T02:19:32.345Z,15.20
2022-09-25T02:22:35.886Z,16.00
2022-09-25T02:25:46.104Z,15.90
2022-09-25T02:28:53.685Z,16.00
2022-09-25T02:32:03.167Z,16.00
2022-09-25T02:35:09.561Z,16.00
2022-09-25T02:38:12.995Z,16.00
2022-09-25T02:41:24.811Z,15.90
2022-09-25T02:44:45.185Z,16.00
2022-09-25T02:48:08.523Z,16.00
2022-09-25T02:51:29.431Z,16.00
2022-09-25T02:54:39.613Z,16.00
2022-09-25T02:57:52.669Z,16.00
2022-09-25T03:00:58.767Z,16.00
2022-09-25T03:04:05.454Z,15.90
2022-09-25T03:07:09.900Z,15.90
2022-09-25T03:10:12.168Z,15.90
2022-09-25T03:13:18.772Z,15.90
2022-09-25T03:16:32.100Z,15.90
2022-09-25T03:19:35.768Z,15.90
2022-09-25T03:22:40.331Z,15.90
2022-09-25T03:25:48.974Z,16.00
2022-09-25T03:28:52.944Z,16.00
2022-09-25T03:31:57.565Z,16.00
2022-09-25T03:35:00.727Z,16.30
2022-09-25T03:38:05.701Z,16.00
2022-09-25T03:41:11.672Z,16.00
2022-09-25T03:44:14.724Z,16.00
2022-09-25T03:47:18.284Z,15.90
2022-09-25T03:50:21.507Z,15.90
2022-09-25T03:53:26.399Z,15.90
2022-09-25T03:56:30.483Z,16.00
2022-09-25T03:59:34.404Z,16.00
2022-09-25T04:02:37.903Z,16.00
2022-09-25T04:05:42.124Z,16.70
2022-09-25T04:08:48.964Z,15.90
2022-09-25T04:11:52.097Z,15.90
2022-09-25T04:14:55.191Z,15.90
2022-09-25T04:18:01.175Z,15.90
2022-09-25T04:21:11.106Z,15.80
2022-09-25T04:24:46.382Z,15.80
2022-09-25T04:27:49.834Z,15.80
2022-09-25T04:30:53.072Z,16.50
2022-09-25T04:33:55.240Z,15.70
2022-09-25T04:36:58.296Z,15.70
2022-09-25T04:40:03.071Z,15.60
2022-09-25T04:43:08.305Z,15.50
2022-09-25T04:46:20.010Z,15.50
2022-09-25T04:49:24.824Z,15.40
2022-09-25T04:52:28.397Z,15.30
2022-09-25T04:55:32.913Z,15.20
2022-09-25T04:58:36.609Z,15.20
2022-09-25T05:01:40.542Z,15.10
2022-09-25T05:04:43.800Z,15.10
2022-09-25T05:07:54.160Z,15.00
2022-09-25T05:10:58.709Z,14.90
2022-09-25T05:14:02.405Z,14.90
2022-09-25T05:17:08.170Z,14.80
2022-09-25T05:20:11.474Z,14.80
2022-09-25T05:23:14.505Z,14.70
2022-09-25T05:26:18.875Z,14.70
2022-09-25T05:29:24.280Z,14.70
2022-09-25T05:32:27.600Z,14.70
2022-09-25T05:35:33.120Z,14.70
2022-09-25T05:38:38.881Z,14.10
2022-09-25T05:41:43.426Z,14.70
2022-09-25T05:44:47.558Z,14.70
2022-09-25T05:47:50.704Z,14.80
2022-09-25T05:50:54.192Z,14.80
2022-09-25T05:53:57.463Z,15.80
2022-09-25T05:57:01.972Z,15.00
2022-09-25T06:00:08.749Z,15.10
2022-09-25T06:03:11.972Z,15.20
2022-09-25T06:06:15.366Z,15.20
2022-09-25T06:09:18.554Z,15.40
2022-09-25T06:12:24.899Z,15.40
2022-09-25T06:15:28.672Z,15.30
2022-09-25T06:18:32.407Z,15.60
2022-09-25T06:21:36.165Z,15.90
2022-09-25T06:24:39.253Z,16.20
2022-09-25T06:27:43.669Z,16.50
2022-09-25T06:30:47.703Z,16.20
2022-09-25T06:33:51.757Z,17.30
2022-09-25T06:36:54.879Z,17.60
2022-09-25T06:39:57.917Z,17.90
2022-09-25T06:43:05.084Z,18.20
2022-09-25T06:46:08.319Z,18.40
2022-09-25T06:49:14.622Z,18.90
2022-09-25T06:52:17.552Z,19.30
2022-09-25T06:55:20.536Z,19.70
2022-09-25T06:58:26.767Z,19.90
2022-09-25T07:01:29.889Z,20.30
2022-09-25T07:04:31.914Z,20.50
2022-09-25T07:07:35.119Z,20.80
2022-09-25T07:10:40.707Z,21.00
2022-09-25T07:13:47.900Z,21.30
2022-09-25T07:16:53.113Z,21.40
2022-09-25T07:19:56.690Z,21.50
2022-09-25T07:23:03.933Z,21.60
2022-09-25T07:26:10.090Z,21.50
2022-09-25T07:29:14.614Z,21.40
2022-09-25T07:32:17.711Z,20.80
2022-09-25T07:35:21.057Z,21.30
2022-09-25T07:38:24.310Z,21.10
2022-09-25T07:41:28.009Z,21.10
2022-09-25T07:44:38.039Z,20.90
2022-09-25T07:47:41.667Z,20.80
2022-09-25T07:50:45.403Z,20.80
2022-09-25T07:53:48.768Z,20.80
2022-09-25T07:56:51.874Z,20.80
2022-09-25T07:59:56.417Z,20.70
2022-09-25T08:03:00.515Z,20.70
2022-09-25T08:06:06.883Z,20.90
2022-09-25T08:09:11.559Z,20.70
2022-09-25T08:12:15.405Z,20.60
2022-09-25T08:15:20.524Z,20.60
2022-09-25T08:18:23.709Z,20.50
2022-09-25T08:21:26.851Z,20.50
2022-09-25T08:24:29.895Z,20.40
2022-09-25T08:27:33.317Z,20.30
2022-09-25T08:30:38.203Z,20.30
2022-09-25T08:33:45.973Z,20.30
2022-09-25T08:36:50.955Z,20.90
2022-09-25T08:39:54.390Z,20.30
2022-09-25T08:42:59.586Z,20.30
2022-09-25T08:46:39.768Z,20.30
2022-09-25T08:49:49.871Z,20.40
2022-09-25T08:53:00.057Z,20.50
2022-09-25T08:56:15.546Z,20.50
2022-09-25T08:59:29.555Z,20.50
2022-09-25T09:02:42.663Z,20.50
2022-09-25T09:05:51.687Z,20.90
2022-09-25T09:09:06.738Z,20.70
2022-09-25T09:12:14.999Z,20.70
2022-09-25T09:15:29.389Z,20.80
2022-09-25T09:18:38.853Z,20.80
2022-09-25T09:21:53.303Z,20.90
2022-09-25T09:25:09.255Z,20.90
2022-09-25T09:28:59.740Z,20.90
2022-09-25T09:32:35.706Z,20.90
2022-09-25T09:35:56.165Z,20.80
2022-09-25T09:39:12.823Z,20.80
2022-09-25T09:42:27.368Z,21.00
2022-09-25T09:45:46.439Z,20.70
2022-09-25T09:49:07.491Z,20.60
2022-09-25T09:52:18.827Z,20.50
2022-09-25T09:55:27.947Z,20.50
2022-09-25T09:58:41.549Z,20.40
2022-09-25T10:01:50.010Z,20.50
2022-09-25T10:04:56.706Z,20.50
2022-09-25T10:08:02.123Z,20.40
2022-09-25T10:11:16.803Z,20.70
2022-09-25T10:14:27.414Z,20.60
2022-09-25T10:17:31.833Z,20.60
2022-09-25T10:20:42.894Z,20.60
2022-09-25T10:23:52.926Z,20.60
2022-09-25T10:26:55.954Z,20.60
2022-09-25T10:30:22.516Z,20.70
2022-09-25T10:33:29.117Z,20.60
2022-09-25T10:36:38.025Z,20.70
2022-09-25T10:39:45.234Z,20.70
2022-09-25T10:42:49.614Z,20.80
2022-09-25T10:46:09.180Z,20.70
2022-09-25T10:49:38.414Z,20.70
2022-09-25T10:52:52.937Z,20.60
2022-09-25T10:56:05.169Z,20.60
2022-09-25T10:59:19.541Z,20.60
2022-09-25T11:02:38.096Z,20.60
2022-09-25T11:05:54.973Z,20.60
2022-09-25T11:09:10.318Z,20.60
2022-09-25T11:12:24.478Z,20.60
2022-09-25T11:15:28.810Z,20.60
2022-09-25T11:18:45.830Z,20.60
2022-09-25T11:22:00.370Z,20.70
2022-09-25T11:25:16.788Z,20.60
2022-09-25T11:28:32.853Z,20.30
2022-09-25T11:31:43.436Z,20.70
2022-09-25T11:35:20.256Z,20.70
2022-09-25T11:38:52.244Z,20.60
2022-09-25T11:42:07.671Z,20.60
2022-09-25T11:45:22.755Z,20.60
2022-09-25T11:48:37.700Z,20.60
2022-09-25T11:52:28.708Z,20.60
2022-09-25T11:55:57.471Z,20.60
2022-09-25T11:59:22.578Z,20.60
2022-09-25T12:02:46.262Z,20.70
2022-09-25T12:06:19.961Z,20.70
2022-09-25T12:09:47.967Z,20.80
2022-09-25T12:12:59.811Z,21.60
2022-09-25T12:16:18.584Z,20.80
2022-09-25T12:19:40.172Z,20.80
2022-09-25T12:23:01.678Z,20.80
2022-09-25T12:26:24.942Z,21.60
2022-09-25T12:29:51.886Z,20.70
2022-09-25T12:33:22.645Z,20.70
2022-09-25T12:36:36.400Z,20.60
2022-09-25T12:39:47.291Z,20.50
2022-09-25T12:43:01.918Z,20.40
2022-09-25T12:46:16.677Z,20.30
2022-09-25T12:49:30.145Z,20.30
2022-09-25T12:52:42.661Z,20.20
2022-09-25T12:55:51.464Z,20.10
2022-09-25T12:59:13.932Z,20.00
2022-09-25T13:02:27.482Z,20.00
2022-09-25T13:05:37.854Z,19.90
2022-09-25T13:08:49.601Z,19.80
2022-09-25T13:12:01.731Z,19.80
2022-09-25T13:15:11.756Z,19.70
2022-09-25T13:18:20.427Z,19.70
2022-09-25T13:21:30.496Z,19.60
2022-09-25T13:24:46.458Z,19.60
2022-09-25T13:27:51.077Z,19.60
2022-09-25T13:31:24.452Z,19.60
2022-09-25T13:34:28.180Z,20.70
2022-09-25T13:37:36.565Z,19.70
2022-09-25T13:40:43.542Z,19.70
2022-09-25T13:43:50.461Z,19.80
2022-09-25T13:47:55.121Z,19.70
2022-09-25T13:51:36.870Z,19.90
2022-09-25T13:54:39.948Z,19.90
2022-09-25T13:58:05.787Z,19.90
2022-09-25T14:01:32.934Z,19.90
2022-09-25T14:04:39.957Z,19.90
2022-09-25T14:07:44.255Z,19.90
2022-09-25T14:10:51.662Z,19.90
2022-09-25T14:13:57.527Z,19.90
2022-09-25T14:17:02.267Z,19.90
2022-09-25T14:20:27.672Z,19.90
2022-09-25T14:23:33.354Z,19.90
2022-09-25T14:26:36.424Z,19.90
2022-09-25T14:29:43.100Z,19.80
2022-09-25T14:33:04.088Z,19.90
2022-09-25T14:36:22.691Z,19.60
2022-09-25T14:39:38.045Z,19.60
2022-09-25T14:43:03.309Z,19.50
2022-09-25T14:46:20.324Z,19.50
2022-09-25T14:49:28.843Z,19.40
2022-09-25T14:52:37.405Z,19.40
2022-09-25T14:55:51.108Z,19.50
2022-09-25T14:59:02.027Z,19.50
2022-09-25T15:02:16.481Z,19.80
2022-09-25T15:05:30.289Z,19.00
2022-09-25T15:08:40.946Z,19.60
2022-09-25T15:11:45.407Z,19.60
2022-09-25T15:15:08.113Z,19.50
2022-09-25T15:18:15.706Z,19.60
2022-09-25T15:21:33.493Z,19.50
2022-09-25T15:24:38.460Z,19.50
2022-09-25T15:27:43.561Z,19.40
2022-09-25T15:30:55.940Z,19.50
2022-09-25T15:34:14.622Z,19.30
2022-09-25T15:37:29.345Z,19.30
2022-09-25T15:40:32.753Z,19.30
2022-09-25T15:43:36.716Z,19.20
2022-09-25T15:46:45.623Z,19.20
2022-09-25T15:49:50.345Z,19.10
2022-09-25T15:52:59.520Z,19.20
2022-09-25T15:56:13.724Z,19.20
2022-09-25T15:59:22.811Z,19.10
2022-09-25T16:02:51.242Z,19.10
2022-09-25T16:05:57.126Z,19.10
2022-09-25T16:09:19.614Z,19.00
2022-09-25T16:12:29.731Z,19.10
2022-09-25T16:15:50.002Z,19.00
2022-09-25T16:18:54.633Z,19.00
2022-09-25T16:22:03.381Z,19.00
2022-09-25T16:25:22.316Z,19.90
2022-09-25T16:28:31.361Z,18.80
2022-09-25T16:31:36.425Z,18.70
2022-09-25T16:34:42.337Z,18.60
2022-09-25T16:37:52.608Z,18.60
2022-09-25T16:41:05.808Z,18.50
2022-09-25T16:44:16.512Z,18.40
2022-09-25T16:47:21.619Z,18.40
2022-09-25T16:50:29.137Z,18.40
2022-09-25T16:53:34.828Z,18.30
2022-09-25T16:56:41.051Z,18.30
2022-09-25T16:59:44.701Z,18.90
2022-09-25T17:02:48.970Z,18.20
2022-09-25T17:05:52.906Z,18.20
2022-09-25T17:08:59.929Z,18.00
2022-09-25T17:12:10.437Z,18.00
2022-09-25T17:15:23.508Z,17.90
2022-09-25T17:18:29.346Z,17.90
2022-09-25T17:21:34.007Z,17.80
2022-09-25T17:24:39.137Z,17.80
2022-09-25T17:27:42.423Z,17.70
2022-09-25T17:30:47.201Z,17.70
2022-09-25T17:33:51.260Z,17.60
2022-09-25T17:36:54.460Z,17.50
2022-09-25T17:40:00.710Z,17.50
2022-09-25T17:43:03.786Z,17.50
2022-09-25T17:46:07.066Z,17.50
2022-09-25T17:49:11.484Z,17.40
2022-09-25T17:52:21.451Z,17.40
2022-09-25T17:55:25.954Z,17.40
2022-09-25T17:58:32.774Z,17.30
2022-09-25T18:01:39.431Z,17.30
2022-09-25T18:04:48.229Z,18.10
2022-09-25T18:07:53.676Z,17.30
2022-09-25T18:10:59.650Z,17.30
2022-09-25T18:14:02.848Z,17.30
2022-09-25T18:17:06.021Z,17.20
2022-09-25T18:20:31.874Z,17.30
2022-09-25T18:23:35.430Z,17.30
2022-09-25T18:26:40.551Z,17.30
2022-09-25T18:29:44.695Z,17.30
2022-09-25T18:32:49.448Z,17.30
2022-09-25T18:35:53.345Z,18.00
2022-09-25T18:38:57.265Z,17.30
2022-09-25T18:42:01.938Z,17.20
2022-09-25T18:45:06.877Z,17.30
2022-09-25T18:48:10.143Z,17.20
2022-09-25T18:51:13.176Z,17.20
2022-09-25T18:54:17.224Z,17.20
2022-09-25T18:57:21.795Z,17.30
2022-09-25T19:00:24.785Z,17.20
2022-09-25T19:03:29.371Z,17.20
2022-09-25T19:06:32.613Z,17.20
2022-09-25T19:09:35.879Z,17.90
2022-09-25T19:12:40.696Z,17.20
2022-09-25T19:15:44.278Z,17.20
2022-09-25T19:18:50.334Z,17.10
2022-09-25T19:21:53.704Z,16.70
2022-09-25T19:24:56.874Z,17.10
2022-09-25T19:28:01.706Z,17.10
2022-09-25T19:31:08.274Z,17.10
2022-09-25T19:34:11.905Z,17.00
2022-09-25T19:37:15.708Z,17.30
2022-09-25T19:40:37.408Z,17.00
2022-09-25T19:43:42.881Z,17.00
2022-09-25T19:46:48.234Z,17.00
2022-09-25T19:49:51.451Z,16.90
2022-09-25T19:52:55.466Z,16.90
2022-09-25T19:55:59.240Z,16.90
2022-09-25T19:59:05.622Z,16.90
2022-09-25T20:02:11.975Z,16.90
2022-09-25T20:05:17.104Z,16.90
2022-09-25T20:08:20.411Z,16.90
2022-09-25T20:11:26.118Z,16.90
2022-09-25T20:14:30.944Z,16.80
2022-09-25T20:17:34.091Z,16.80
2022-09-25T20:20:37.325Z,16.80
2022-09-25T20:23:40.807Z,16.70
2022-09-25T20:26:43.886Z,16.80
2022-09-25T20:29:48.876Z,16.80
2022-09-25T20:32:54.103Z,16.70
2022-09-25T20:36:00.547Z,16.70
2022-09-25T20:39:03.750Z,16.70
2022-09-25T20:42:06.880Z,16.60
2022-09-25T20:45:11.917Z,16.60
2022-09-25T20:48:17.829Z,16.60
2022-09-25T20:51:27.245Z,16.60
2022-09-25T20:54:30.472Z,16.60
2022-09-25T20:57:35.288Z,17.10
2022-09-25T21:00:43.097Z,16.70
2022-09-25T21:03:50.132Z,16.40
2022-09-25T21:06:53.851Z,16.40
2022-09-25T21:09:57.124Z,16.40
2022-09-25T21:13:00.245Z,16.40
2022-09-25T21:16:08.484Z,15.60
2022-09-25T21:19:15.341Z,16.30
2022-09-25T21:22:18.557Z,16.70
2022-09-25T21:25:21.949Z,16.60
2022-09-25T21:28:25.307Z,16.30
2022-09-25T21:31:33.004Z,16.20
2022-09-25T21:34:36.172Z,16.20
2022-09-25T21:37:39.726Z,16.20
2022-09-25T21:40:42.764Z,16.20
2022-09-25T21:43:47.157Z,16.20
2022-09-25T21:46:52.403Z,16.40
2022-09-25T21:49:56.542Z,16.10
2022-09-25T21:52:59.881Z,16.00
2022-09-25T21:56:05.669Z,16.00
2022-09-25T21:59:09.625Z,15.90
2022-09-25T22:02:14.749Z,15.90
2022-09-25T22:05:17.617Z,16.80
2022-09-25T22:08:21.592Z,15.80
2022-09-25T22:11:26.460Z,15.70
2022-09-25T22:14:29.518Z,14.90
2022-09-25T22:17:33.945Z,15.60
2022-09-25T22:20:39.224Z,15.40
2022-09-25T22:23:42.670Z,15.50
2022-09-25T22:26:48.986Z,15.40
2022-09-25T22:29:52.280Z,15.40
2022-09-25T22:32:56.599Z,15.40
2022-09-25T22:36:00.797Z,15.40
2022-09-25T22:39:05.535Z,15.30
2022-09-25T22:42:08.630Z,15.30
2022-09-25T22:45:12.139Z,15.30
2022-09-25T22:48:16.665Z,15.20
2022-09-25T22:51:22.314Z,15.20
2022-09-25T22:54:25.522Z,14.90
2022-09-25T22:57:30.701Z,15.10
2022-09-25T23:00:34.037Z,15.10
2022-09-25T23:03:38.968Z,15.00
2022-09-25T23:06:42.419Z,14.60
2022-09-25T23:09:45.612Z,14.90
2022-09-25T23:12:51.967Z,15.00
2022-09-25T23:15:54.941Z,14.90
2022-09-25T23:19:00.769Z,14.90
2022-09-25T23:22:05.196Z,14.90
2022-09-25T23:25:09.317Z,15.80
2022-09-25T23:28:12.615Z,14.80
2022-09-25T23:31:18.690Z,14.80
2022-09-25T23:34:24.939Z,14.80
2022-09-25T23:37:30.320Z,14.70
2022-09-25T23:40:33.379Z,14.70
2022-09-25T23:43:36.771Z,14.70
2022-09-25T23:46:42.983Z,14.70
2022-09-25T23:49:47.253Z,14.70
2022-09-25T23:52:51.307Z,14.70
2022-09-25T23:56:09.716Z,14.60
2022-09-25T23:59:13.983Z,14.60
